Flight Track Log - Related Links

Times and Time Zones

All times are in EDT time to prevent confusion due to time zone crossing. See the CTL311 flight status page for this flight to view local times or setup timezone preferences in your user account.

Time Position Orientation Groundspeed Altitude Reporting Facility
EDT Latitude Longitude Course Direction KTS MPH feet Rate Location/Type
Sat 05:08:57 AM 40.1067 -83.0908 344° North 121 139 2,200  Level Indianapolis Center
Sat 05:09:15 AM 40.1189 -83.0956 344° North 135 155 2,500 649 Climbing Indianapolis Center
Sat 05:10:11 AM 40.1575 -83.1125 341° North 153 176 3,000 590 Climbing Indianapolis Center
Sat 05:10:16 AM 40.1611 -83.1161 323° Northwest 161 185 3,100 400 Climbing Indianapolis Center
Sat 05:11:11 AM 40.2000 -83.1364 338° Northwest 157 181 3,400 492 Climbing Indianapolis Center
Sat 05:11:17 AM 40.2047 -83.1425 315° West 168 193 3,600 393 Climbing Indianapolis Center
Sat 05:12:12 AM 40.2431 -83.1625 338° Northwest 165 190 3,800 400 Climbing Indianapolis Center
Sat 05:12:17 AM 40.2486 -83.1661 334° Northwest 170 196 4,000 600 Climbing Indianapolis Center
Sat 05:13:12 AM 40.2850 -83.1864 337° Northwest 166 191 4,400 689 Climbing Indianapolis Center
Sat 05:13:18 AM 40.2903 -83.1922 320° Northwest 163 188 4,700 689 Climbing Indianapolis Center
Sat 05:14:13 AM 40.3267 -83.2081 342° North 164 189 5,100 600 Climbing Indianapolis Center
Sat 05:14:18 AM 40.3325 -83.2128 328° Northwest 157 181 5,300 636 Climbing Indianapolis Center
Sat 05:15:19 AM 40.3722 -83.2358 336° Northwest 158 182 5,800 259 Climbing Indianapolis Center
Sat 05:16:14 AM 40.4064 -83.2539 338° Northwest 157 181 5,800 104 Level Indianapolis Center
Sat 05:17:14 AM 40.4511 -83.2722 343° North 164 189 6,000 50 Climbing Indianapolis Center
Sat 05:18:15 AM 40.4964 -83.2914 342° North 170 196 5,900  Descending Indianapolis Center
Sat 05:19:15 AM 40.5386 -83.3197 333° Northwest 170 196 6,000  Climbing Indianapolis Center
Sat 05:20:15 AM 40.5819 -83.3450 336° Northwest 170 196 5,900 -50 Descending Indianapolis Center
Sat 05:21:16 AM 40.6242 -83.3689 337° Northwest 167 192 5,900 99 Level Indianapolis Center
Sat 05:22:16 AM 40.6667 -83.3917 338° Northwest 167 192 6,100  Climbing Indianapolis Center
Sat 05:23:17 AM 40.7067 -83.4147 336° Northwest 160 184 5,900 -50 Descending Indianapolis Center
Sat 05:24:17 AM 40.7475 -83.4428 333° Northwest 164 189 6,000 50 Climbing Indianapolis Center
Sat 05:25:18 AM 40.7947 -83.4736 334° Northwest 166 191 6,000  Level Indianapolis Center
Sat 05:26:18 AM 40.8344 -83.5006 333° Northwest 162 186 6,000  Level Indianapolis Center
Sat 05:27:19 AM 40.8703 -83.5222 335° Northwest 164 189 6,000  Level Indianapolis Center
Sat 05:28:19 AM 40.9092 -83.5486 333° Northwest 159 183 6,000  Level Indianapolis Center
Sat 05:29:18 AM 40.9500 -83.5742 335° Northwest 161 185 6,000 -50 Level Cleveland Center
Sat 05:30:18 AM 40.9908 -83.5975 337° Northwest 160 184 5,900 -50 Descending Cleveland Center
Sat 05:31:19 AM 41.0333 -83.6217 337° Northwest 165 190 5,900  Level Cleveland Center
Sat 05:32:19 AM 41.0731 -83.6481 333° Northwest 161 185 5,900 50 Level Cleveland Center
Sat 05:33:19 AM 41.1172 -83.6703 339° North 155 178 6,000  Climbing Cleveland Center
Sat 05:34:20 AM 41.1600 -83.6911 340° North 162 186 5,900 -50 Descending Cleveland Center
Sat 05:35:20 AM 41.2008 -83.7197 332° Northwest 165 190 5,900  Level Cleveland Center
Sat 05:36:21 AM 41.2411 -83.7450 335° Northwest 163 188 5,900  Level Cleveland Center
Sat 05:37:21 AM 41.2814 -83.7717 334° Northwest 162 186 5,900  Level Cleveland Center
Sat 05:38:21 AM 41.3242 -83.7989 334° Northwest 167 192 5,900  Level Cleveland Center
Sat 05:39:22 AM 41.3664 -83.8258 334° Northwest 169 194 5,900  Level Cleveland Center
Sat 05:40:22 AM 41.4081 -83.8533 334° Northwest 168 193 5,900  Level Cleveland Center
Sat 05:41:22 AM 41.4506 -83.8797 335° Northwest 170 196 5,900 50 Level Cleveland Center
Sat 05:42:23 AM 41.4917 -83.9069 334° Northwest 166 191 6,000  Climbing Cleveland Center
Sat 05:43:23 AM 41.5311 -83.9342 333° Northwest 163 188 5,900  Descending Cleveland Center
Sat 05:44:24 AM 41.5733 -83.9581 337° Northwest 164 189 6,000 -50 Climbing Cleveland Center
Sat 05:45:24 AM 41.6147 -83.9772 341° North 161 185 5,800 -50 Descending Cleveland Center
Sat 05:46:25 AM 41.6556 -83.9992 338° Northwest 159 183 5,900  Climbing Cleveland Center
Sat 05:47:25 AM 41.6894 -84.0281 328° Northwest 149 171 5,800 -50 Descending Cleveland Center
Sat 05:48:25 AM 41.7319 -84.0506 338° Northwest 160 184 5,800  Level Cleveland Center
Sat 05:49:26 AM 41.7725 -84.0731 338° Northwest 159 183 5,800 50 Level Cleveland Center
Sat 05:50:26 AM 41.8133 -84.0931 340° North 158 182 5,900  Climbing Cleveland Center
Sat 05:51:27 AM 41.8508 -84.1206 331° Northwest 155 178 5,800 -50 Descending Cleveland Center
Sat 05:52:27 AM 41.8889 -84.1442 335° Northwest 156 180 5,800 -50 Level Cleveland Center
Sat 05:53:28 AM 41.9311 -84.1606 344° North 158 182 5,700 -98 Descending Cleveland Center

Login

Don't have an account? Register now (free) for customized features, flight alerts, and more!